Albany, New Hampshire
Current Conditions -  °F | °C
As of 11:54 AM on Sunday 21 Dec 2014 (Local Time) from KIZG Reporting Station
Overcast Overcast  
Wind Chill: 26°   Ceiling: 7500
Heat Index: 26°   Visibility: 10mi
Dew Point: 17°   Wind: 3mph
Humidity: 69%   Direction: NA
Pressure: 30.33"   Gusts: NA
Location:  43.9735°N, 71.2576°W
Report Text: KIZG 211654Z AUTO VRB03KT 10SM OVC075 M03/M08 A3033 RMK AO2 SLP279 T10331083
Loading
Personal Weather Stations






























Interactive Weather Map New forecast layout! Learn more

10-Day Weather Forecast

Advertisements
Track Severe Weather on mobile